createdAt,value
2019-06-10T00:01:11.948Z,2.10
2019-06-10T00:03:45.410Z,2.22
2019-06-10T00:06:20.812Z,2.47
2019-06-10T00:08:53.628Z,2.27
2019-06-10T00:11:26.866Z,2.80
2019-06-10T00:14:02.442Z,2.60
2019-06-10T00:16:34.966Z,2.27
2019-06-10T00:19:10.144Z,2.70
2019-06-10T00:21:42.995Z,2.17
2019-06-10T00:24:17.149Z,2.45
2019-06-10T00:26:51.020Z,2.20
2019-06-10T00:29:25.533Z,2.02
2019-06-10T00:32:01.728Z,1.98
2019-06-10T00:34:35.094Z,2.62
2019-06-10T00:37:10.308Z,2.62
2019-06-10T00:39:43.274Z,2.52
2019-06-10T00:42:16.514Z,2.58
2019-06-10T00:44:50.901Z,2.50
2019-06-10T00:47:24.177Z,2.05
2019-06-10T00:49:57.445Z,1.98
2019-06-10T00:52:30.922Z,2.10
2019-06-10T00:55:04.904Z,2.20
2019-06-10T00:57:41.705Z,2.35
2019-06-10T01:00:25.212Z,2.55
2019-06-10T01:02:51.773Z,1.87
2019-06-10T01:05:25.094Z,2.10
2019-06-10T01:07:58.442Z,2.47
2019-06-10T01:10:32.182Z,1.92
2019-06-10T01:13:05.348Z,1.65
2019-06-10T01:15:41.670Z,2.20
2019-06-10T01:18:32.024Z,1.90
2019-06-10T01:20:51.577Z,1.90
2019-06-10T01:23:24.387Z,2.80
2019-06-10T01:25:57.692Z,2.15
2019-06-10T01:28:31.403Z,2.37
2019-06-10T01:31:08.524Z,1.95
2019-06-10T01:33:41.113Z,2.37
2019-06-10T01:36:16.450Z,2.70
2019-06-10T01:38:51.187Z,2.40
2019-06-10T01:41:24.438Z,2.40
2019-06-10T01:43:57.762Z,2.15
2019-06-10T01:46:31.630Z,2.25
2019-06-10T01:49:05.000Z,2.10
2019-06-10T01:51:38.221Z,2.10
2019-06-10T01:54:12.391Z,2.50
2019-06-10T01:56:46.562Z,2.15
2019-06-10T01:59:21.940Z,2.20
2019-06-10T02:02:00.981Z,2.25
2019-06-10T02:04:34.587Z,2.58
2019-06-10T02:07:09.213Z,2.10
2019-06-10T02:09:42.896Z,2.83
2019-06-10T02:12:18.754Z,2.87
2019-06-10T02:14:51.125Z,2.20
2019-06-10T02:17:24.483Z,2.92
2019-06-10T02:19:57.850Z,2.55
2019-06-10T02:22:32.097Z,2.55
2019-06-10T02:25:05.680Z,2.83
2019-06-10T02:27:41.347Z,2.42
2019-06-10T02:30:26.316Z,2.70
2019-06-10T02:32:52.131Z,2.33
2019-06-10T02:35:30.446Z,2.42
2019-06-10T02:37:58.364Z,2.40
2019-06-10T02:40:35.773Z,2.40
2019-06-10T02:43:07.704Z,2.08
2019-06-10T02:45:44.207Z,1.77
2019-06-10T02:48:19.665Z,2.67
2019-06-10T02:51:08.312Z,2.75
2019-06-10T02:53:43.490Z,2.47
2019-06-10T02:56:17.721Z,2.47
2019-06-10T02:58:53.501Z,2.00
2019-06-10T03:01:31.884Z,3.58
2019-06-10T03:04:04.314Z,2.47
2019-06-10T03:06:39.986Z,2.30
2019-06-10T03:09:13.794Z,2.62
2019-06-10T03:11:45.724Z,2.92
2019-06-10T03:14:19.778Z,2.67
2019-06-10T03:16:57.635Z,2.95
2019-06-10T03:19:45.812Z,2.20
2019-06-10T03:22:05.602Z,2.42
2019-06-10T03:24:38.658Z,2.58
2019-06-10T03:27:12.638Z,2.90
2019-06-10T03:29:45.936Z,2.55
2019-06-10T03:32:20.144Z,2.40
2019-06-10T03:34:54.997Z,3.12
2019-06-10T03:37:28.353Z,2.95
2019-06-10T03:40:02.482Z,2.27
2019-06-10T03:42:36.218Z,2.75
2019-06-10T03:45:12.447Z,2.60
2019-06-10T03:47:45.035Z,3.17
2019-06-10T03:50:19.190Z,2.50
2019-06-10T03:52:52.528Z,2.40
2019-06-10T03:55:27.927Z,2.90
2019-06-10T03:58:02.225Z,2.55
2019-06-10T04:00:37.097Z,2.75
2019-06-10T04:03:12.121Z,3.10
2019-06-10T04:05:46.482Z,2.92
2019-06-10T04:08:22.030Z,2.83
2019-06-10T04:10:54.419Z,2.65
2019-06-10T04:13:28.470Z,3.10
2019-06-10T04:16:02.380Z,2.65
2019-06-10T04:18:35.971Z,2.70
2019-06-10T04:21:09.149Z,3.00
2019-06-10T04:23:42.641Z,3.17
2019-06-10T04:26:17.563Z,3.62
2019-06-10T04:28:53.063Z,3.25
2019-06-10T04:31:26.873Z,3.33
2019-06-10T04:34:02.941Z,3.15
2019-06-10T04:36:35.377Z,3.33
2019-06-10T04:39:09.162Z,3.02
2019-06-10T04:41:42.785Z,3.12
2019-06-10T04:44:16.039Z,3.55
2019-06-10T04:46:49.142Z,3.15
2019-06-10T04:49:25.088Z,3.45
2019-06-10T04:51:57.156Z,3.33
2019-06-10T04:54:30.460Z,3.00
2019-06-10T04:57:03.926Z,3.47
2019-06-10T04:59:38.411Z,3.95
2019-06-10T05:02:12.880Z,3.75
2019-06-10T05:04:46.254Z,3.83
2019-06-10T05:07:19.530Z,4.05
2019-06-10T05:09:52.732Z,4.28
2019-06-10T05:12:26.771Z,3.83
2019-06-10T05:15:03.282Z,3.42
2019-06-10T05:17:35.655Z,4.03
2019-06-10T05:20:09.503Z,3.45
2019-06-10T05:22:42.708Z,4.08
2019-06-10T05:25:17.032Z,3.65
2019-06-10T05:27:52.220Z,4.35
2019-06-10T05:30:29.107Z,3.72
2019-06-10T05:33:03.073Z,3.62
2019-06-10T05:35:43.630Z,3.83
2019-06-10T05:38:18.733Z,3.83
2019-06-10T05:40:52.219Z,3.90
2019-06-10T05:43:26.396Z,4.58
2019-06-10T05:46:02.589Z,4.03
2019-06-10T05:48:35.185Z,4.17
2019-06-10T05:51:08.650Z,3.70
2019-06-10T05:53:42.735Z,3.62
2019-06-10T05:56:16.925Z,4.33
2019-06-10T05:58:52.253Z,3.77
2019-06-10T06:01:25.657Z,4.65
2019-06-10T06:03:58.986Z,4.10
2019-06-10T06:06:34.071Z,4.10
2019-06-10T06:09:08.882Z,4.33
2019-06-10T06:11:43.055Z,5.30
2019-06-10T06:14:16.597Z,4.70
2019-06-10T06:16:49.856Z,5.45
2019-06-10T06:19:23.317Z,4.92
2019-06-10T06:21:56.663Z,5.10
2019-06-10T06:24:29.929Z,5.53
2019-06-10T06:27:03.378Z,5.50
2019-06-10T06:29:38.250Z,4.70
2019-06-10T06:32:13.182Z,6.12
2019-06-10T06:34:47.595Z,6.17
2019-06-10T06:37:23.203Z,5.65
2019-06-10T06:39:56.136Z,6.12
2019-06-10T06:42:29.565Z,6.10
2019-06-10T06:45:03.352Z,5.90
2019-06-10T06:47:37.699Z,5.45
2019-06-10T06:50:13.046Z,5.47
2019-06-10T06:53:16.924Z,6.30
2019-06-10T06:55:23.388Z,6.42
2019-06-10T06:57:56.626Z,6.15
2019-06-10T07:00:52.964Z,6.42
2019-06-10T07:03:12.550Z,6.80
2019-06-10T07:05:48.475Z,6.50
2019-06-10T07:08:22.784Z,6.03
2019-06-10T07:10:58.557Z,6.22
2019-06-10T07:13:37.125Z,6.17
2019-06-10T07:16:09.555Z,6.15
2019-06-10T07:18:49.554Z,5.62
2019-06-10T07:21:17.989Z,6.30
2019-06-10T07:23:52.891Z,7.17
2019-06-10T07:26:26.498Z,7.15
2019-06-10T07:29:02.738Z,7.12
2019-06-10T07:31:36.548Z,6.62
2019-06-10T07:34:10.006Z,6.60
2019-06-10T07:36:45.190Z,6.67
2019-06-10T07:39:18.505Z,6.95
2019-06-10T07:41:52.881Z,7.10
2019-06-10T07:44:26.404Z,7.87
2019-06-10T07:47:02.409Z,7.83
2019-06-10T07:49:35.372Z,7.10
2019-06-10T07:52:18.500Z,7.75
2019-06-10T07:54:45.402Z,7.53
2019-06-10T07:57:18.810Z,7.50
2019-06-10T07:59:52.460Z,8.43
2019-06-10T08:02:25.922Z,7.65
2019-06-10T08:04:59.348Z,7.80
2019-06-10T08:07:33.483Z,8.20
2019-06-10T08:10:13.260Z,7.25
2019-06-10T08:12:48.273Z,7.00
2019-06-10T08:15:22.996Z,7.87
2019-06-10T08:17:57.063Z,8.03
2019-06-10T08:20:47.629Z,8.10
2019-06-10T08:23:23.655Z,8.20
2019-06-10T08:25:57.981Z,8.48
2019-06-10T08:28:33.246Z,9.30
2019-06-10T08:31:06.598Z,7.47
2019-06-10T08:33:42.560Z,8.20
2019-06-10T08:36:15.244Z,8.23
2019-06-10T08:38:49.170Z,8.25
2019-06-10T08:41:23.200Z,7.65
2019-06-10T08:43:56.878Z,8.48
2019-06-10T08:46:32.993Z,8.10
2019-06-10T08:49:07.102Z,8.03
2019-06-10T08:51:45.427Z,7.97
2019-06-10T08:54:16.162Z,8.60
2019-06-10T08:56:50.906Z,8.40
2019-06-10T08:59:25.906Z,8.80
2019-06-10T09:01:59.343Z,8.58
2019-06-10T09:04:33.198Z,9.50
2019-06-10T09:07:06.627Z,9.50
2019-06-10T09:09:40.511Z,8.63
2019-06-10T09:12:28.735Z,8.98
2019-06-10T09:14:52.998Z,8.70
2019-06-10T09:17:25.716Z,8.95
2019-06-10T09:19:59.131Z,8.93
2019-06-10T09:22:32.775Z,9.73
2019-06-10T09:25:07.166Z,9.20
2019-06-10T09:27:44.941Z,9.45
2019-06-10T09:30:18.779Z,7.95
2019-06-10T09:32:56.361Z,9.05
2019-06-10T09:35:28.846Z,9.05
2019-06-10T09:38:03.700Z,9.45
2019-06-10T09:41:00.815Z,8.33
2019-06-10T09:43:28.380Z,9.25
2019-06-10T09:46:03.673Z,8.93
2019-06-10T09:48:37.254Z,9.25
2019-06-10T09:51:13.362Z,9.28
2019-06-10T09:54:01.115Z,8.65
2019-06-10T09:56:29.493Z,9.20
2019-06-10T09:59:17.889Z,9.58
2019-06-10T10:01:58.720Z,9.80
2019-06-10T10:04:32.893Z,7.72
2019-06-10T10:07:34.671Z,9.53
2019-06-10T10:10:23.995Z,9.23
2019-06-10T10:13:28.495Z,8.60
2019-06-10T10:16:08.836Z,9.33
2019-06-10T10:18:48.297Z,8.00
2019-06-10T10:21:36.256Z,8.30
2019-06-10T10:24:15.081Z,8.48
2019-06-10T10:26:56.952Z,8.15
2019-06-10T10:29:27.272Z,9.55
2019-06-10T10:32:02.621Z,9.00
2019-06-10T10:34:36.223Z,9.13
2019-06-10T10:37:12.234Z,8.40
2019-06-10T10:39:49.066Z,8.43
2019-06-10T10:42:23.869Z,8.20
2019-06-10T10:44:59.262Z,8.93
2019-06-10T10:47:33.866Z,8.78
2019-06-10T10:50:13.654Z,8.18
2019-06-10T10:52:46.766Z,7.22
2019-06-10T10:55:33.481Z,8.33
2019-06-10T10:58:45.350Z,9.58
2019-06-10T11:01:23.784Z,8.20
2019-06-10T11:03:59.238Z,9.03
2019-06-10T11:06:32.410Z,8.55
2019-06-10T11:09:12.987Z,9.33
2019-06-10T11:11:48.862Z,8.80
2019-06-10T11:14:23.068Z,9.15
2019-06-10T11:16:58.882Z,8.30
2019-06-10T11:19:32.939Z,8.45
2019-06-10T11:22:06.167Z,9.50
2019-06-10T11:24:42.283Z,7.78
2019-06-10T11:27:14.133Z,9.00
2019-06-10T11:29:48.171Z,8.48
2019-06-10T11:32:21.820Z,8.78
2019-06-10T11:34:56.875Z,8.48
2019-06-10T11:37:30.660Z,7.85
2019-06-10T11:40:04.979Z,7.50
2019-06-10T11:42:38.615Z,8.45
2019-06-10T11:45:12.729Z,7.20
2019-06-10T11:47:46.690Z,6.97
2019-06-10T11:50:23.228Z,7.92
2019-06-10T11:53:00.234Z,7.83
2019-06-10T11:55:33.332Z,8.48
2019-06-10T11:58:07.157Z,8.75
2019-06-10T12:00:42.530Z,8.53
2019-06-10T12:03:15.518Z,8.75
2019-06-10T12:05:49.099Z,8.83
2019-06-10T12:08:23.702Z,7.83
2019-06-10T12:11:01.820Z,7.55
2019-06-10T12:13:34.667Z,7.95
2019-06-10T12:18:44.511Z,7.95
2019-06-10T12:21:17.811Z,7.55
2019-06-10T12:23:54.809Z,7.55
2019-06-10T12:26:26.179Z,6.97
2019-06-10T12:29:01.710Z,7.45
2019-06-10T12:31:34.928Z,8.08
2019-06-10T12:34:08.723Z,7.87
2019-06-10T12:36:41.849Z,7.37
2019-06-10T12:39:58.201Z,7.15
2019-06-10T12:42:33.776Z,7.70
2019-06-10T12:45:12.756Z,7.70
2019-06-10T12:48:16.321Z,8.28
2019-06-10T12:50:55.329Z,8.43
2019-06-10T12:53:26.659Z,7.85
2019-06-10T12:56:02.751Z,9.45
2019-06-10T12:58:34.673Z,7.62
2019-06-10T13:01:08.135Z,8.75
2019-06-10T13:03:43.640Z,8.78
2019-06-10T13:06:18.773Z,7.30
2019-06-10T13:08:56.387Z,8.40
2019-06-10T13:11:29.525Z,7.90
2019-06-10T13:14:05.113Z,8.00
2019-06-10T13:16:37.751Z,7.58
2019-06-10T13:19:13.152Z,7.90
2019-06-10T13:21:45.876Z,8.38
2019-06-10T13:24:22.323Z,7.70
2019-06-10T13:26:56.540Z,9.00
2019-06-10T13:29:38.151Z,8.63
2019-06-10T13:32:12.825Z,7.45
2019-06-10T13:34:48.858Z,8.25
2019-06-10T13:37:22.822Z,8.78
2019-06-10T13:39:57.455Z,8.63
2019-06-10T13:42:35.687Z,8.70
2019-06-10T13:45:08.180Z,8.45
2019-06-10T13:48:01.127Z,7.45
2019-06-10T13:50:38.861Z,7.08
2019-06-10T13:53:13.544Z,6.97
2019-06-10T13:55:47.282Z,6.92
2019-06-10T13:58:23.053Z,7.00
2019-06-10T14:00:56.227Z,7.10
2019-06-10T14:03:32.678Z,7.37
2019-06-10T14:06:25.798Z,7.15
2019-06-10T14:08:43.194Z,6.80
2019-06-10T14:11:18.714Z,6.20
2019-06-10T14:13:54.723Z,7.55
2019-06-10T14:16:28.552Z,6.37
2019-06-10T14:19:05.760Z,6.60
2019-06-10T14:21:39.379Z,7.30
2019-06-10T14:24:15.977Z,6.95
2019-06-10T14:26:48.671Z,7.37
2019-06-10T14:29:22.356Z,7.05
2019-06-10T14:31:56.060Z,7.35
2019-06-10T14:34:29.891Z,7.65
2019-06-10T14:37:03.806Z,6.90
2019-06-10T14:39:38.993Z,7.87
2019-06-10T14:42:15.007Z,6.90
2019-06-10T14:44:53.931Z,7.85
2019-06-10T14:47:28.730Z,8.63
2019-06-10T14:50:05.191Z,7.05
2019-06-10T14:52:39.043Z,6.87
2019-06-10T14:55:16.401Z,7.03
2019-06-10T14:57:48.510Z,7.50
2019-06-10T15:00:23.741Z,8.13
2019-06-10T15:02:57.616Z,7.40
2019-06-10T15:05:32.383Z,7.05
2019-06-10T15:08:07.216Z,6.53
2019-06-10T15:10:43.019Z,6.58
2019-06-10T15:13:16.110Z,6.47
2019-06-10T15:15:49.533Z,6.80
2019-06-10T15:18:23.873Z,7.30
2019-06-10T15:20:57.781Z,6.62
2019-06-10T15:23:32.529Z,6.65
2019-06-10T15:26:09.914Z,7.20
2019-06-10T15:28:43.722Z,7.15
2019-06-10T15:31:19.555Z,7.12
2019-06-10T15:33:53.408Z,6.80
2019-06-10T15:36:27.353Z,5.83
2019-06-10T15:39:01.081Z,6.67
2019-06-10T15:41:36.221Z,7.25
2019-06-10T15:44:09.869Z,8.00
2019-06-10T15:46:43.386Z,7.70
2019-06-10T15:49:19.359Z,7.70
2019-06-10T15:51:52.775Z,8.10
2019-06-10T15:54:26.765Z,8.23
2019-06-10T15:57:00.342Z,7.10
2019-06-10T15:59:34.146Z,7.62
2019-06-10T16:02:13.866Z,7.03
2019-06-10T16:04:46.727Z,8.00
2019-06-10T16:07:25.774Z,8.18
2019-06-10T16:10:03.813Z,7.83
2019-06-10T16:13:03.437Z,7.83
2019-06-10T16:15:43.469Z,8.33
2019-06-10T16:18:20.088Z,8.15
2019-06-10T16:20:54.667Z,7.87
2019-06-10T16:23:29.044Z,9.25
2019-06-10T16:26:29.993Z,9.15
2019-06-10T16:29:15.206Z,9.00
2019-06-10T16:31:52.951Z,8.95
2019-06-10T16:34:41.306Z,8.10
2019-06-10T16:52:15.719Z,8.90
2019-06-10T16:54:58.108Z,8.50
2019-06-10T16:57:33.445Z,9.30
2019-06-10T17:00:18.331Z,10.00
2019-06-10T17:03:15.144Z,8.38
2019-06-10T17:05:53.237Z,8.93
2019-06-10T17:08:28.429Z,9.58
2019-06-10T17:11:03.282Z,9.45
2019-06-10T17:13:37.466Z,8.43
2019-06-10T17:16:12.782Z,9.08
2019-06-10T17:18:47.087Z,8.60
2019-06-10T17:21:24.709Z,8.50
2019-06-10T17:23:58.346Z,8.40
2019-06-10T17:26:37.874Z,8.55
2019-06-10T17:29:11.874Z,9.03
2019-06-10T17:31:49.029Z,8.83
2019-06-10T17:34:25.963Z,8.35
2019-06-10T17:36:59.557Z,8.90
2019-06-10T17:39:34.913Z,8.45
2019-06-10T17:42:12.418Z,9.33
2019-06-10T17:44:52.906Z,8.58
2019-06-10T17:47:34.695Z,8.90
2019-06-10T17:50:12.653Z,8.38
2019-06-10T17:52:46.807Z,8.93
2019-06-10T17:55:24.874Z,9.45
2019-06-10T17:57:57.879Z,9.85
2019-06-10T18:00:36.071Z,9.90
2019-06-10T18:03:13.019Z,9.63
2019-06-10T18:05:48.591Z,9.73
2019-06-10T18:08:24.399Z,9.00
2019-06-10T18:11:03.072Z,10.38
2019-06-10T18:13:38.079Z,9.65
2019-06-10T18:16:14.462Z,9.90
2019-06-10T18:18:48.864Z,9.83
2019-06-10T18:21:24.748Z,10.35
2019-06-10T18:24:05.035Z,8.83
2019-06-10T18:26:39.086Z,9.65
2019-06-10T18:29:18.021Z,10.20
2019-06-10T18:31:54.872Z,9.35
2019-06-10T18:34:37.810Z,9.73
2019-06-10T18:37:09.679Z,9.73
2019-06-10T18:39:43.196Z,9.75
2019-06-10T18:42:19.603Z,9.48
2019-06-10T18:44:53.071Z,9.55
2019-06-10T18:47:27.547Z,10.38
2019-06-10T18:50:01.198Z,10.35
2019-06-10T18:52:34.583Z,9.25
2019-06-10T18:55:09.207Z,10.65
2019-06-10T18:57:42.713Z,10.45
2019-06-10T19:00:17.697Z,10.43
2019-06-10T19:03:08.646Z,11.43
2019-06-10T19:05:26.208Z,10.80
2019-06-10T19:07:59.371Z,11.30
2019-06-10T19:10:35.299Z,10.93
2019-06-10T19:13:07.751Z,10.55
2019-06-10T19:15:42.592Z,11.00
2019-06-10T19:18:17.021Z,11.50
2019-06-10T19:20:52.389Z,11.83
2019-06-10T19:23:25.040Z,10.60
2019-06-10T19:25:58.216Z,10.88
2019-06-10T19:28:33.892Z,11.15
2019-06-10T19:31:06.319Z,11.53
2019-06-10T19:33:41.330Z,10.88
2019-06-10T19:36:15.496Z,11.95
2019-06-10T19:38:48.787Z,11.40
2019-06-10T19:41:25.466Z,12.55
2019-06-10T19:43:59.780Z,12.28
2019-06-10T19:46:34.244Z,12.75
2019-06-10T19:49:07.743Z,12.40
2019-06-10T19:51:46.249Z,13.18
2019-06-10T19:54:19.397Z,14.58
2019-06-10T19:56:52.705Z,18.45
2019-06-10T19:59:25.891Z,20.32
2019-06-10T20:01:59.004Z,23.05
2019-06-10T20:04:33.446Z,23.62
2019-06-10T20:07:07.161Z,21.80
2019-06-10T20:09:43.513Z,23.85
2019-06-10T20:12:15.390Z,24.18
2019-06-10T20:14:49.861Z,25.30
2019-06-10T20:17:23.282Z,23.18
2019-06-10T20:19:56.385Z,22.15
2019-06-10T20:22:31.944Z,22.22
2019-06-10T20:25:04.758Z,19.73
2019-06-10T20:27:37.927Z,18.92
2019-06-10T20:30:24.287Z,19.00
2019-06-10T20:32:51.878Z,18.73
2019-06-10T20:35:23.214Z,19.23
2019-06-10T20:37:57.592Z,20.60
2019-06-10T20:40:32.071Z,19.42
2019-06-10T20:43:05.841Z,20.52
2019-06-10T20:45:39.533Z,21.42
2019-06-10T20:48:12.939Z,20.85
2019-06-10T20:50:47.361Z,18.82
2019-06-10T20:53:21.056Z,17.23
2019-06-10T20:55:57.615Z,17.62
2019-06-10T20:58:29.214Z,15.88
2019-06-10T21:01:04.586Z,15.18
2019-06-10T21:03:39.111Z,15.15
2019-06-10T21:06:14.301Z,15.80
2019-06-10T21:08:49.602Z,15.08
2019-06-10T21:11:23.240Z,14.78
2019-06-10T21:13:56.842Z,14.28
2019-06-10T21:16:32.170Z,13.80
2019-06-10T21:19:05.907Z,15.08
2019-06-10T21:21:40.388Z,15.28
2019-06-10T21:24:14.588Z,15.70
2019-06-10T21:26:49.902Z,15.08
2019-06-10T21:29:24.000Z,13.68
2019-06-10T21:31:57.481Z,15.13
2019-06-10T21:34:32.712Z,14.47
2019-06-10T21:37:05.845Z,14.95
2019-06-10T21:39:39.347Z,13.98
2019-06-10T21:42:12.881Z,13.85
2019-06-10T21:44:46.301Z,14.87
2019-06-10T21:47:19.733Z,15.60
2019-06-10T21:49:54.644Z,17.25
2019-06-10T21:52:28.337Z,15.95
2019-06-10T21:55:02.956Z,15.98
2019-06-10T21:57:36.633Z,17.60
2019-06-10T22:00:14.071Z,16.93
2019-06-10T22:02:51.062Z,17.62
2019-06-10T22:05:24.411Z,17.35
2019-06-10T22:07:57.876Z,17.67
2019-06-10T22:10:33.409Z,17.87
2019-06-10T22:13:07.276Z,17.62
2019-06-10T22:15:42.527Z,17.85
2019-06-10T22:18:15.573Z,17.50
2019-06-10T22:20:48.992Z,18.37
2019-06-10T22:23:23.263Z,18.12
2019-06-10T22:25:57.720Z,18.95
2019-06-10T22:28:32.797Z,17.57
2019-06-10T22:31:19.117Z,17.40
2019-06-10T22:33:43.125Z,18.55
2019-06-10T22:36:16.650Z,17.62
2019-06-10T22:38:50.098Z,19.57
2019-06-10T22:41:25.063Z,19.80
2019-06-10T22:43:59.679Z,18.70
2019-06-10T22:46:33.443Z,19.02
2019-06-10T22:49:07.698Z,19.15
2019-06-10T22:51:42.872Z,19.10
2019-06-10T22:54:15.952Z,17.60
2019-06-10T22:56:49.673Z,17.65
2019-06-10T22:59:23.056Z,17.32
2019-06-10T23:01:57.981Z,19.42
2019-06-10T23:04:33.141Z,19.07
2019-06-10T23:07:06.469Z,19.90
2019-06-10T23:09:39.861Z,18.40
2019-06-10T23:12:13.273Z,21.48
2019-06-10T23:14:46.599Z,20.35
2019-06-10T23:17:21.918Z,20.90
2019-06-10T23:19:56.546Z,20.10
2019-06-10T23:22:30.149Z,18.32
2019-06-10T23:25:03.524Z,18.98
2019-06-10T23:27:36.905Z,18.35
2019-06-10T23:30:11.730Z,19.05
2019-06-10T23:32:45.420Z,18.92
2019-06-10T23:35:18.871Z,19.25
2019-06-10T23:37:55.141Z,19.20
2019-06-10T23:40:27.473Z,18.20
2019-06-10T23:43:01.648Z,19.23
2019-06-10T23:45:35.866Z,16.85
2019-06-10T23:48:09.235Z,17.92
2019-06-10T23:50:43.686Z,18.20
2019-06-10T23:53:17.312Z,17.80
2019-06-10T23:55:51.788Z,17.55
2019-06-10T23:58:25.570Z,17.17
